Time;durP1;ratioP1;P1;durP2;ratioP2;P2;SDS_P1;SDS_P2;PMS_P1;PMS_P2;Temp;Humidity;BMP_temperature;BMP_pressure;BME280_temperature;BME280_humidity;BME280_pressure;Samples;Min_cycle;Max_cycle;Signal;HPM_P1;HPM_P2
2023/10/12 00:01:58;;;;;;;0.40;0.40;;;;;;;17.52;60.16;97277.94;5052150;28;20069;-73
2023/10/12 00:04:28;;;;;;;0.43;0.43;;;;;;;17.50;60.52;97267.38;5049974;28;20048;-73
2023/10/12 00:06:58;;;;;;;0.40;0.40;;;;;;;17.53;60.50;97274.16;5043041;28;20137;-74
2023/10/12 00:09:27;;;;;;;0.47;0.47;;;;;;;17.50;60.55;97269.25;5051659;28;20048;-74
2023/10/12 00:11:58;;;;;;;0.40;0.40;;;;;;;17.50;60.49;97269.25;5051507;28;20044;-74
2023/10/12 00:14:29;;;;;;;0.50;0.50;;;;;;;17.48;60.89;97260.59;5041136;28;20111;-74
2023/10/12 00:16:58;;;;;;;0.32;0.32;;;;;;;17.48;61.04;97255.19;5042989;28;20408;-73
2023/10/12 00:19:25;;;;;;;0.52;0.52;;;;;;;17.48;61.21;97255.19;5044884;28;20045;-73
2023/10/12 00:22:00;;;;;;;0.55;0.55;;;;;;;17.47;60.90;97259.75;5052314;28;20114;-74
2023/10/12 00:24:28;;;;;;;0.40;0.40;;;;;;;17.50;61.23;97253.06;5042851;28;20055;-74
2023/10/12 00:26:57;;;;;;;0.38;0.38;;;;;;;17.46;61.42;97243.81;5042865;28;20073;-74
2023/10/12 00:29:26;;;;;;;0.38;0.38;;;;;;;17.47;61.47;97253.53;5038600;28;20045;-74
2023/10/12 00:31:56;;;;;;;0.40;0.40;;;;;;;17.49;61.19;97254.94;5046501;28;20464;-74
2023/10/12 00:34:23;;;;;;;0.32;0.32;;;;;;;17.51;61.19;97260.09;5039846;28;20069;-74
2023/10/12 00:36:53;;;;;;;0.50;0.50;;;;;;;17.50;60.62;97258.47;5039738;28;20566;-73
2023/10/12 00:39:29;;;;;;;0.40;0.38;;;;;;;17.50;60.72;97259.28;5050928;28;20057;-74
2023/10/12 00:41:57;;;;;;;0.45;0.45;;;;;;;17.49;60.63;97251.41;5051167;28;20127;-75
2023/10/12 00:44:29;;;;;;;0.47;0.47;;;;;;;17.46;59.79;97250.03;5053312;28;20129;-74
2023/10/12 00:47:07;;;;;;;;;;;;;;;17.46;59.69;97249.22;5042798;28;20654;-74
2023/10/12 00:49:39;;;;;;;0.35;0.35;;;;;;;17.43;59.74;97247.84;5053200;28;20317;-74
2023/10/12 00:52:08;;;;;;;0.45;0.45;;;;;;;17.46;59.98;97243.81;5050127;28;20104;-74
2023/10/12 00:54:49;;;;;;;0.32;0.32;;;;;;;17.38;60.14;97246.94;5044795;28;20049;-73
2023/10/12 00:57:17;;;;;;;0.35;0.35;;;;;;;17.31;60.45;97232.81;5047494;28;20026;-73
2023/10/12 00:59:46;;;;;;;0.40;0.40;;;;;;;17.26;60.50;97230.81;5051322;28;20055;-73
2023/10/12 01:02:16;;;;;;;0.30;0.30;;;;;;;17.28;60.64;97217.09;5051114;28;20075;-74
2023/10/12 01:04:48;;;;;;;0.40;0.40;;;;;;;17.16;61.37;97218.00;5048388;28;20136;-75
2023/10/12 01:07:25;;;;;;;0.38;0.38;;;;;;;17.14;61.03;97217.41;5041258;28;20067;-74
2023/10/12 01:10:03;;;;;;;0.77;0.77;;;;;;;17.11;60.93;97217.13;5049814;28;20096;-74
2023/10/12 01:12:32;;;;;;;0.50;0.50;;;;;;;17.09;61.23;97211.97;5047034;28;20056;-74
2023/10/12 01:15:11;;;;;;;0.40;0.40;;;;;;;17.13;60.91;97204.22;5049677;28;20069;-74
2023/10/12 01:17:41;;;;;;;0.47;0.47;;;;;;;17.17;60.92;97203.47;5065206;28;20053;-74
2023/10/12 01:20:12;;;;;;;0.50;0.50;;;;;;;17.18;60.63;97197.00;5050490;28;20091;-75
2023/10/12 01:22:41;;;;;;;0.30;0.30;;;;;;;17.15;60.85;97185.88;5049556;28;20072;-74
2023/10/12 01:25:19;;;;;;;0.38;0.38;;;;;;;17.14;60.84;97192.34;5048049;28;20049;-73
2023/10/12 01:27:47;;;;;;;;;;;;;;;17.14;60.98;97181.53;5042365;28;20116;-74
2023/10/12 01:30:19;;;;;;;0.50;0.50;;;;;;;17.18;60.66;97182.69;5050182;28;19921;-73
2023/10/12 01:32:53;;;;;;;;;;;;;;;17.17;60.79;97178.34;5044156;28;20040;-74
2023/10/12 01:35:27;;;;;;;0.40;0.40;;;;;;;17.14;61.00;97179.66;5051793;28;19964;-75
2023/10/12 01:38:01;;;;;;;0.45;0.40;;;;;;;17.15;61.14;97167.81;5042312;28;20044;-73
2023/10/12 01:40:45;;;;;;;0.22;0.22;;;;;;;17.13;61.22;97169.94;5051423;28;20377;-74
2023/10/12 01:43:15;;;;;;;0.40;0.40;;;;;;;17.15;61.40;97175.91;5039948;28;20052;-74
2023/10/12 01:45:44;;;;;;;0.30;0.30;;;;;;;17.25;61.07;97178.75;5038735;28;20071;-73
2023/10/12 01:48:16;;;;;;;0.40;0.40;;;;;;;17.24;61.14;97182.50;5044254;28;20077;-73
2023/10/12 01:50:46;;;;;;;0.40;0.40;;;;;;;17.25;61.16;97180.63;5049489;28;20052;-73
2023/10/12 01:53:29;;;;;;;0.47;0.47;;;;;;;17.27;61.11;97178.50;5040693;28;20045;-75
2023/10/12 01:55:58;;;;;;;0.40;0.40;;;;;;;17.34;60.96;97170.25;5043373;28;20106;-73
2023/10/12 01:58:28;;;;;;;0.32;0.32;;;;;;;17.31;60.96;97168.88;5042631;28;20125;-73
2023/10/12 02:01:05;;;;;;;0.40;0.40;;;;;;;17.32;61.00;97170.50;5050340;28;20049;-73
2023/10/12 02:03:37;;;;;;;0.40;0.40;;;;;;;17.32;61.10;97169.69;5042559;28;20059;-74
2023/10/12 02:06:13;;;;;;;0.30;0.30;;;;;;;17.32;61.11;97162.41;5043458;28;20075;-73
2023/10/12 02:08:47;;;;;;;0.60;0.60;;;;;;;17.35;61.05;97167.28;5048920;28;20132;-74
2023/10/12 02:11:27;;;;;;;0.40;0.40;;;;;;;17.31;61.42;97146.47;5043851;28;20041;-73
2023/10/12 02:13:55;;;;;;;0.35;0.35;;;;;;;17.32;61.14;97153.50;5040797;28;20076;-74
2023/10/12 02:16:30;;;;;;;0.30;0.30;;;;;;;17.32;61.30;97156.19;5038536;28;20084;-74
2023/10/12 02:19:00;;;;;;;0.40;0.40;;;;;;;17.35;61.13;97161.09;5046033;28;20045;-75
2023/10/12 02:21:28;;;;;;;0.40;0.40;;;;;;;17.36;61.22;97158.13;5041771;28;20236;-74
2023/10/12 02:24:10;;;;;;;0.40;0.40;;;;;;;17.39;61.18;97154.13;5067847;28;20148;-74
2023/10/12 02:26:52;;;;;;;0.60;0.60;;;;;;;17.38;61.50;97158.72;5048463;28;20073;-74
2023/10/12 02:29:20;;;;;;;0.43;0.43;;;;;;;17.34;61.54;97168.34;5050097;28;20041;-73
2023/10/12 02:31:58;;;;;;;0.30;0.30;;;;;;;17.34;61.60;97170.25;5054397;28;20110;-73
2023/10/12 02:34:29;;;;;;;0.40;0.40;;;;;;;17.33;61.68;97163.22;5046868;28;20112;-73
2023/10/12 02:37:16;;;;;;;0.50;0.50;;;;;;;17.36;61.75;97170.81;5038249;28;20519;-72
2023/10/12 02:39:46;;;;;;;0.43;0.43;;;;;;;17.36;61.63;97163.53;5052321;28;20133;-73
2023/10/12 02:42:21;;;;;;;0.32;0.32;;;;;;;17.34;61.72;97172.97;5049382;28;20069;-73
2023/10/12 02:45:16;;;;;;;0.30;0.30;;;;;;;17.36;61.93;97173.50;5046684;28;20045;-72
2023/10/12 02:47:46;;;;;;;0.52;0.52;;;;;;;17.30;62.16;97172.63;5050141;28;20090;-72
2023/10/12 02:50:29;;;;;;;0.75;0.75;;;;;;;17.31;62.29;97181.53;5052916;28;20095;-73
2023/10/12 02:52:58;;;;;;;0.47;0.47;;;;;;;17.35;62.08;97188.88;5045861;28;20049;-73
2023/10/12 02:55:40;;;;;;;0.43;0.43;;;;;;;17.33;62.39;97187.50;5052992;28;20539;-73
2023/10/12 02:58:17;;;;;;;0.50;0.50;;;;;;;17.34;62.25;97186.44;5047005;28;20041;-73
2023/10/12 03:00:47;;;;;;;0.28;0.28;;;;;;;17.30;62.55;97191.50;5049184;28;20069;-74
2023/10/12 03:03:25;;;;;;;0.40;0.40;;;;;;;17.30;62.57;97196.91;5051517;28;20112;-73
2023/10/12 03:05:58;;;;;;;0.40;0.40;;;;;;;17.29;62.78;97203.38;5046541;28;20041;-72
2023/10/12 03:08:30;;;;;;;0.30;0.30;;;;;;;17.27;62.77;97196.56;5047688;28;20033;-73
2023/10/12 03:11:12;;;;;;;0.40;0.40;;;;;;;17.25;62.85;97194.94;5053079;28;20150;-73
2023/10/12 03:13:42;;;;;;;0.40;0.40;;;;;;;17.31;62.88;97192.34;5050823;28;20053;-72
2023/10/12 03:16:15;;;;;;;0.55;0.30;;;;;;;17.28;62.84;97200.91;5057312;28;20120;-74
2023/10/12 03:18:43;;;;;;;0.30;0.30;;;;;;;17.23;63.08;97202.47;5050217;28;20516;-74
2023/10/12 03:21:14;;;;;;;0.35;0.35;;;;;;;17.22;62.89;97202.72;5059348;28;20049;-73
2023/10/12 03:23:46;;;;;;;0.63;0.63;;;;;;;17.25;62.80;97204.91;5053258;28;20048;-73
2023/10/12 03:26:24;;;;;;;0.35;0.35;;;;;;;17.21;63.09;97198.41;5034899;28;20363;-73
2023/10/12 03:28:53;;;;;;;0.45;0.45;;;;;;;17.18;63.11;97194.31;5044733;28;20033;-74
2023/10/12 03:31:24;;;;;;;0.60;0.60;;;;;;;17.16;63.33;97203.69;5048359;28;20539;-74
2023/10/12 03:33:54;;;;;;;0.43;0.43;;;;;;;17.13;63.34;97205.00;5038386;28;20129;-74
2023/10/12 03:36:26;;;;;;;0.40;0.40;;;;;;;17.12;63.49;97205.28;5046906;28;20132;-73
2023/10/12 03:39:14;;;;;;;0.40;0.40;;;;;;;17.10;63.66;97205.50;5049907;28;20040;-73
2023/10/12 03:41:54;;;;;;;0.43;0.43;;;;;;;17.08;63.99;97204.13;5058670;28;20049;-75
2023/10/12 03:44:35;;;;;;;0.35;0.35;;;;;;;17.07;63.67;97205.19;5055991;28;20162;-73
2023/10/12 03:47:14;;;;;;;0.30;0.30;;;;;;;17.03;63.78;97204.84;5056344;28;20059;-73
2023/10/12 03:49:57;;;;;;;0.50;0.50;;;;;;;17.02;64.01;97197.84;5048751;28;20109;-74
2023/10/12 03:52:29;;;;;;;0.40;0.40;;;;;;;17.00;63.91;97202.66;5051141;28;20059;-74
2023/10/12 03:55:16;;;;;;;0.38;0.38;;;;;;;16.97;64.08;97203.13;5051137;28;20043;-73
2023/10/12 03:57:50;;;;;;;0.40;0.40;;;;;;;17.00;64.03;97199.13;5060242;28;20110;-74
2023/10/12 04:00:25;;;;;;;0.38;0.38;;;;;;;16.97;64.28;97197.75;5056530;28;20033;-74
2023/10/12 04:02:58;;;;;;;0.40;0.40;;;;;;;16.98;64.13;97193.16;5052198;28;20048;-73
2023/10/12 04:05:45;;;;;;;0.38;0.38;;;;;;;16.98;64.03;97199.38;5058153;28;20205;-74
2023/10/12 04:08:39;;;;;;;0.85;0.85;;;;;;;17.00;63.99;97212.63;5054615;28;20115;-74
2023/10/12 04:11:48;;;;;;;0.45;0.45;;;;;;;16.97;63.96;97210.41;5053828;28;20048;-74
2023/10/12 04:14:48;;;;;;;0.52;0.52;;;;;;;16.96;63.96;97212.28;5055562;28;20045;-73
2023/10/12 04:20:14;;;;;;;0.50;0.50;;;;;;;16.96;63.95;97212.28;5055134;28;20492;-73
2023/10/12 04:23:13;;;;;;;0.47;0.47;;;;;;;16.94;63.94;97211.69;5057403;28;20044;-73
2023/10/12 04:25:45;;;;;;;0.40;0.40;;;;;;;16.93;63.97;97207.38;5058655;28;20067;-73
2023/10/12 04:28:22;;;;;;;0.47;0.47;;;;;;;16.93;63.97;97211.94;5059748;28;20096;-75
2023/10/12 04:31:20;;;;;;;0.52;0.52;;;;;;;16.90;63.88;97215.97;5066898;28;20040;-73
2023/10/12 04:33:56;;;;;;;0.30;0.30;;;;;;;16.91;63.87;97222.19;5066444;28;20060;-72
2023/10/12 04:36:33;;;;;;;0.40;0.40;;;;;;;16.90;63.98;97221.34;5059350;28;20419;-73
2023/10/12 04:39:17;;;;;;;0.60;0.60;;;;;;;16.90;63.70;97225.94;5052531;28;20119;-72
2023/10/12 04:41:54;;;;;;;0.40;0.40;;;;;;;16.88;63.92;97221.59;5050394;28;20053;-72
2023/10/12 04:44:39;;;;;;;0.40;0.40;;;;;;;16.86;64.08;97220.19;5055668;28;20046;-73
2023/10/12 04:47:10;;;;;;;0.35;0.35;;;;;;;16.83;64.14;97218.81;5052301;28;20087;-72
2023/10/12 04:49:57;;;;;;;0.40;0.22;;;;;;;16.85;64.32;97224.78;5047564;28;20425;-74
2023/10/12 04:52:29;;;;;;;0.20;0.20;;;;;;;16.83;64.44;97236.84;5057295;28;20365;-74
2023/10/12 04:55:06;;;;;;;0.43;0.43;;;;;;;16.86;64.21;97239.06;5053668;28;20101;-74
2023/10/12 04:57:38;;;;;;;0.40;0.40;;;;;;;16.83;64.24;97247.63;5054389;28;20045;-74
2023/10/12 05:00:24;;;;;;;0.40;0.40;;;;;;;16.81;64.21;97249.78;5052362;28;20056;-73
2023/10/12 05:03:00;;;;;;;0.47;0.47;;;;;;;16.81;64.16;97247.09;5060633;28;20059;-74
2023/10/12 05:08:14;;;;;;;0.35;0.35;;;;;;;16.80;64.11;97245.44;5049727;28;20052;-74
2023/10/12 05:10:48;;;;;;;0.30;0.30;;;;;;;16.79;64.08;97252.72;5051639;28;20491;-74
2023/10/12 05:13:23;;;;;;;0.60;0.60;;;;;;;16.80;64.09;97258.94;5050631;28;20045;-74
2023/10/12 05:15:54;;;;;;;0.30;0.30;;;;;;;16.78;64.10;97253.78;5050006;28;20065;-74
2023/10/12 05:18:26;;;;;;;0.57;0.57;;;;;;;16.78;64.16;97255.66;5051195;28;20049;-74
2023/10/12 05:20:54;;;;;;;0.40;0.40;;;;;;;16.77;64.12;97262.09;5049768;28;20691;-74
2023/10/12 05:23:21;;;;;;;0.40;0.40;;;;;;;16.78;64.15;97250.25;5059700;28;20040;-74
2023/10/12 05:25:53;;;;;;;0.38;0.38;;;;;;;16.78;64.17;97266.44;5049206;28;20051;-73
2023/10/12 05:28:27;;;;;;;0.47;0.47;;;;;;;16.74;64.27;97258.00;5051622;28;20527;-74
2023/10/12 05:30:59;;;;;;;0.40;0.40;;;;;;;16.76;64.07;97246.97;5050261;28;20451;-75
2023/10/12 05:33:38;;;;;;;0.47;0.47;;;;;;;16.73;64.25;97267.13;5052277;28;20518;-75
2023/10/12 05:36:09;;;;;;;0.52;0.52;;;;;;;16.73;63.99;97271.72;5052847;28;20053;-74
2023/10/12 05:38:38;;;;;;;0.40;0.40;;;;;;;16.74;64.24;97276.03;5049600;28;20076;-75
2023/10/12 05:41:08;;;;;;;0.50;0.50;;;;;;;16.72;64.30;97270.06;5050421;28;20033;-74
2023/10/12 05:43:38;;;;;;;0.43;0.43;;;;;;;16.72;64.30;97288.94;5054280;28;20056;-73
2023/10/12 05:46:13;;;;;;;0.40;0.40;;;;;;;16.71;64.31;97287.34;5046764;28;20048;-76
2023/10/12 05:48:46;;;;;;;0.40;0.40;;;;;;;16.70;64.43;97296.47;5055458;28;20101;-76
2023/10/12 05:51:18;;;;;;;0.38;0.38;;;;;;;16.69;64.58;97303.75;5049555;28;20048;-74
2023/10/12 05:53:48;;;;;;;0.43;0.43;;;;;;;16.68;64.53;97304.78;5050357;28;20053;-76
2023/10/12 05:56:17;;;;;;;0.30;0.30;;;;;;;16.67;64.60;97302.34;5049439;28;20059;-74
2023/10/12 05:58:45;;;;;;;0.45;0.45;;;;;;;16.68;64.56;97315.56;5048585;28;20098;-74
2023/10/12 06:01:31;;;;;;;0.50;0.50;;;;;;;16.69;64.49;97324.47;5056882;28;20067;-74
2023/10/12 06:04:14;;;;;;;0.47;0.47;;;;;;;16.66;64.71;97331.16;5050057;28;20447;-73
2023/10/12 06:06:43;;;;;;;0.30;0.30;;;;;;;16.67;64.71;97334.69;5051175;28;20040;-76
2023/10/12 06:09:20;;;;;;;0.50;0.50;;;;;;;16.65;64.83;97336.78;5049213;28;20044;-74
2023/10/12 06:11:49;;;;;;;0.43;0.43;;;;;;;16.64;64.93;97335.97;5054948;28;20079;-75
2023/10/12 06:14:20;;;;;;;0.30;0.30;;;;;;;16.64;64.88;97344.06;5058761;28;20049;-74
2023/10/12 06:16:54;;;;;;;0.43;0.43;;;;;;;16.63;64.92;97350.50;5070232;28;20055;-74
2023/10/12 06:19:26;;;;;;;0.47;0.47;;;;;;;16.65;65.05;97352.97;5071785;28;20045;-74
2023/10/12 06:21:58;;;;;;;0.45;0.45;;;;;;;16.62;65.30;97378.50;5066987;28;20064;-74
2023/10/12 06:24:34;;;;;;;0.30;0.30;;;;;;;16.63;65.26;97376.63;5072230;28;20052;-74
2023/10/12 06:27:11;;;;;;;0.52;0.52;;;;;;;16.64;65.35;97372.88;5068733;28;20041;-75
2023/10/12 06:29:42;;;;;;;0.60;0.60;;;;;;;16.67;65.35;97367.03;5068854;28;20048;-75
2023/10/12 06:32:19;;;;;;;0.50;0.50;;;;;;;16.68;65.51;97380.25;5062250;28;20052;-75
2023/10/12 06:35:02;;;;;;;0.55;0.55;;;;;;;16.64;65.49;97384.47;5054949;28;20045;-75
2023/10/12 06:40:37;;;;;;;0.50;0.50;;;;;;;16.63;65.65;97395.50;5045904;28;20040;-75
2023/10/12 06:46:03;;;;;;;0.22;0.22;;;;;;;16.62;65.95;97423.50;5057518;28;20415;-75
2023/10/12 06:48:47;;;;;;;0.10;0.10;;;;;;;16.63;65.85;97435.91;5056826;28;20412;-74
2023/10/12 06:51:16;;;;;;;0.50;0.50;;;;;;;16.64;66.07;97438.38;5052519;28;20121;-75
2023/10/12 06:53:45;;;;;;;0.30;0.30;;;;;;;16.66;65.90;97420.09;5051052;28;20418;-75
2023/10/12 06:59:20;;;;;;;0.45;0.45;;;;;;;16.71;66.06;97406.75;5056552;28;20473;-75
2023/10/12 07:02:09;;;;;;;0.50;0.50;;;;;;;16.70;66.20;97385.41;5061529;28;20053;-75
2023/10/12 07:04:39;;;;;;;0.50;0.50;;;;;;;16.72;65.94;97391.38;5051134;28;20388;-75
2023/10/12 07:07:15;;;;;;;0.47;0.47;;;;;;;16.72;65.85;97416.44;5051227;28;20134;-75
2023/10/12 07:09:44;;;;;;;0.50;0.50;;;;;;;16.77;66.34;97421.97;5051448;28;20053;-75
2023/10/12 07:12:13;;;;;;;0.55;0.55;;;;;;;16.81;65.90;97477.03;5061405;28;20033;-75
2023/10/12 07:14:46;;;;;;;0.30;0.30;;;;;;;16.78;66.27;97476.69;5053348;28;20036;-75
2023/10/12 07:17:15;;;;;;;0.40;0.40;;;;;;;16.72;66.84;97473.06;5058140;28;20044;-75
2023/10/12 07:19:46;;;;;;;0.50;0.50;;;;;;;16.73;67.45;97473.88;5051622;28;20040;-75
2023/10/12 07:22:16;;;;;;;0.50;0.50;;;;;;;16.71;67.70;97476.00;5054312;28;20088;-75
2023/10/12 07:24:44;;;;;;;0.30;0.30;;;;;;;16.73;68.39;97481.97;5063165;28;20090;-75
2023/10/12 07:27:17;;;;;;;0.38;0.38;;;;;;;16.71;69.39;97470.63;5054210;28;20049;-75
2023/10/12 07:29:47;;;;;;;0.40;0.40;;;;;;;16.70;68.96;97468.97;5054903;28;21047;-75
2023/10/12 07:32:30;;;;;;;0.60;0.57;;;;;;;16.67;68.99;97453.25;5064617;28;20814;-75
2023/10/12 07:35:07;;;;;;;0.40;0.40;;;;;;;16.64;69.47;97433.00;5059181;28;20059;-75
2023/10/12 07:37:41;;;;;;;0.40;0.40;;;;;;;16.61;69.30;97414.56;5059263;28;20053;-75
2023/10/12 07:40:19;;;;;;;0.50;0.50;;;;;;;16.60;70.37;97426.41;5061382;28;20080;-75
2023/10/12 07:42:47;;;;;;;0.40;0.40;;;;;;;16.59;70.17;97429.34;5058627;28;20049;-75
2023/10/12 07:45:16;;;;;;;0.30;0.30;;;;;;;16.55;71.10;97436.25;5061732;28;20045;-75
2023/10/12 07:47:46;;;;;;;0.40;0.40;;;;;;;16.54;70.79;97421.97;5060581;28;20127;-76
2023/10/12 07:50:15;;;;;;;0.50;0.50;;;;;;;16.55;70.35;97409.31;5057256;28;20041;-76
2023/10/12 07:52:47;;;;;;;0.60;0.60;;;;;;;16.53;70.55;97391.50;5064613;28;20120;-75
2023/10/12 07:55:17;;;;;;;0.40;0.40;;;;;;;16.55;71.00;97393.13;5053068;28;20091;-75
2023/10/12 07:57:47;;;;;;;0.45;0.45;;;;;;;16.51;71.23;97400.88;5054739;28;20468;-75
2023/10/12 08:00:34;;;;;;;0.35;0.35;;;;;;;16.55;71.68;97387.75;5062114;28;20049;-75
2023/10/12 08:06:06;;;;;;;0.45;0.45;;;;;;;16.65;71.69;97472.38;5057684;28;19924;-75
2023/10/12 08:08:35;;;;;;;0.43;0.43;;;;;;;16.69;70.35;97475.41;5060609;28;20528;-75
2023/10/12 08:11:18;;;;;;;0.40;0.40;;;;;;;16.64;70.21;97494.16;5055931;28;20128;-74
2023/10/12 08:13:48;;;;;;;0.32;0.32;;;;;;;16.64;69.99;97497.69;5062437;28;20118;-74
2023/10/12 08:16:25;;;;;;;0.40;0.40;;;;;;;16.60;70.77;97495.66;5054778;28;20059;-74
2023/10/12 08:19:23;;;;;;;0.40;0.40;;;;;;;16.63;70.49;97492.50;5054393;28;20041;-75
2023/10/12 08:21:59;;;;;;;0.40;0.40;;;;;;;16.62;70.88;97493.56;5058208;28;20048;-75
2023/10/12 08:24:30;;;;;;;0.40;0.40;;;;;;;16.63;71.41;97500.59;5060659;28;20431;-74
2023/10/12 08:27:00;;;;;;;0.40;0.40;;;;;;;16.62;71.74;97497.09;5051186;28;20052;-75
2023/10/12 08:32:27;;;;;;;0.55;0.50;;;;;;;16.64;72.44;97500.38;5059037;28;20049;-75
2023/10/12 08:40:30;;;;;;;0.43;0.43;;;;;;;16.66;72.52;97487.47;5054414;28;20056;-75
2023/10/12 08:43:06;;;;;;;0.52;0.52;;;;;;;16.62;73.11;97488.19;5049846;28;20065;-75
2023/10/12 08:45:36;;;;;;;0.40;0.40;;;;;;;16.64;72.95;97497.69;5056152;28;20128;-75
2023/10/12 08:48:05;;;;;;;0.68;0.68;;;;;;;16.65;73.67;97482.31;5056243;28;20412;-75
2023/10/12 08:51:06;;;;;;;0.40;0.40;;;;;;;16.62;73.93;97493.56;5052155;28;20041;-74
2023/10/12 08:53:35;;;;;;;0.40;0.40;;;;;;;16.68;73.95;97489.94;5051291;28;20066;-74
2023/10/12 08:56:08;;;;;;;0.60;0.60;;;;;;;16.68;74.25;97492.66;5056804;28;20055;-74
2023/10/12 08:58:42;;;;;;;0.60;0.60;;;;;;;16.75;74.44;97498.72;5049243;28;20052;-75
2023/10/12 09:01:10;;;;;;;0.47;0.47;;;;;;;16.73;74.28;97492.75;5049253;28;20048;-76
2023/10/12 09:03:44;;;;;;;0.30;0.30;;;;;;;16.65;73.80;97502.00;5059708;28;20123;-75
2023/10/12 09:06:53;;;;;;;0.40;0.40;;;;;;;16.69;73.60;97488.91;5053514;28;20040;-75
2023/10/12 09:12:01;;;;;;;0.40;0.40;;;;;;;16.77;73.40;97485.84;5055702;28;20045;-75
2023/10/12 09:14:32;;;;;;;0.40;0.40;;;;;;;16.83;73.45;97492.97;5058192;28;20079;-75
2023/10/12 09:17:03;;;;;;;0.20;0.20;;;;;;;16.81;73.10;97482.44;5054390;28;20388;-75
2023/10/12 09:19:32;;;;;;;0.50;0.50;;;;;;;16.87;73.16;97494.97;5052174;28;20073;-75
2023/10/12 09:22:03;;;;;;;0.32;0.32;;;;;;;16.91;73.36;97494.50;5058379;28;20454;-74
2023/10/12 09:24:35;;;;;;;0.38;0.38;;;;;;;16.87;72.58;97496.84;5057431;28;20041;-75
2023/10/12 09:27:11;;;;;;;0.28;0.28;;;;;;;16.81;73.19;97495.91;5052056;28;20080;-75
2023/10/12 09:29:57;;;;;;;0.50;0.50;;;;;;;16.80;73.00;97507.75;5059346;28;20480;-75
2023/10/12 09:32:25;;;;;;;0.43;0.43;;;;;;;16.79;72.39;97508.00;5052974;28;20067;-76
2023/10/12 09:35:10;;;;;;;0.73;0.73;;;;;;;16.79;72.50;97510.69;5064961;28;20068;-75
2023/10/12 09:37:44;;;;;;;0.60;0.60;;;;;;;16.80;72.53;97509.63;5055719;28;20045;-74
2023/10/12 09:40:26;;;;;;;0.50;0.50;;;;;;;16.83;72.51;97526.13;5052187;28;20133;-75
2023/10/12 09:42:59;;;;;;;0.40;0.40;;;;;;;16.79;73.04;97526.84;5056198;28;20119;-75
2023/10/12 09:45:33;;;;;;;0.40;0.40;;;;;;;16.75;72.33;97531.06;5053172;28;20112;-75
2023/10/12 09:48:05;;;;;;;0.70;0.70;;;;;;;16.72;73.31;97537.75;5058274;28;20101;-75
2023/10/12 09:50:35;;;;;;;0.65;0.65;;;;;;;16.66;73.88;97544.09;5058111;28;20514;-74
2023/10/12 09:53:13;;;;;;;0.40;0.40;;;;;;;16.59;73.85;97543.34;5063900;28;20075;-74
2023/10/12 09:56:02;;;;;;;0.40;0.40;;;;;;;16.58;73.95;97547.09;5052042;28;20044;-75
2023/10/12 09:58:34;;;;;;;0.40;0.40;;;;;;;16.59;74.15;97534.44;5056503;28;20052;-75
2023/10/12 10:01:07;;;;;;;0.35;0.35;;;;;;;16.56;74.36;97543.00;5049964;28;20387;-76
2023/10/12 10:03:47;;;;;;;0.45;0.45;;;;;;;16.60;74.97;97536.09;5047010;28;20025;-75
2023/10/12 10:06:28;;;;;;;0.50;0.50;;;;;;;16.58;74.00;97530.94;5052493;28;20064;-74
2023/10/12 10:09:19;;;;;;;0.40;0.40;;;;;;;16.52;74.30;97524.59;5052433;28;20480;-74
2023/10/12 10:11:57;;;;;;;0.40;0.40;;;;;;;16.50;74.33;97524.03;5051668;28;20045;-75
2023/10/12 10:14:29;;;;;;;0.35;0.35;;;;;;;16.48;75.27;97520.75;5050375;28;20053;-74
2023/10/12 10:16:59;;;;;;;0.50;0.50;;;;;;;16.48;76.10;97514.53;5054144;28;20045;-74
2023/10/12 10:19:30;;;;;;;0.35;0.35;;;;;;;16.42;75.57;97510.06;5050275;28;20056;-74
2023/10/12 10:22:11;;;;;;;0.30;0.30;;;;;;;16.43;76.86;97498.22;5050253;28;20049;-75
2023/10/12 10:24:46;;;;;;;0.50;0.50;;;;;;;16.39;76.40;97486.31;5063321;28;20047;-74
2023/10/12 10:27:15;;;;;;;0.40;0.40;;;;;;;16.38;76.50;97471.19;5049332;28;20040;-74
2023/10/12 10:29:52;;;;;;;0.40;0.40;;;;;;;16.34;76.64;97470.81;5052838;28;20120;-74
2023/10/12 10:32:29;;;;;;;0.57;0.55;;;;;;;16.29;76.86;97464.50;5053306;28;20055;-75
2023/10/12 10:34:59;;;;;;;0.30;0.30;;;;;;;16.27;77.01;97459.34;5046260;28;20417;-75
2023/10/12 10:37:47;;;;;;;0.32;0.32;;;;;;;16.24;77.04;97467.91;5050548;28;20082;-74
2023/10/12 10:40:18;;;;;;;0.10;0.10;;;;;;;16.26;77.12;97483.81;5049232;28;20408;-75
2023/10/12 10:42:57;;;;;;;0.20;0.20;;;;;;;16.25;78.37;97501.03;5051696;28;20404;-75
2023/10/12 10:45:27;;;;;;;0.50;0.50;;;;;;;16.20;78.36;97507.09;5058287;28;20044;-75
2023/10/12 10:47:56;;;;;;;0.40;0.40;;;;;;;16.25;79.22;97509.13;5052410;28;20040;-75
2023/10/12 10:50:27;;;;;;;0.38;0.38;;;;;;;16.28;78.04;97500.59;5056812;28;20051;-75
2023/10/12 10:52:59;;;;;;;0.40;0.40;;;;;;;16.25;78.79;97504.56;5055326;28;20120;-76
2023/10/12 10:55:31;;;;;;;0.30;0.30;;;;;;;16.24;79.71;97499.41;5061484;28;20044;-75
2023/10/12 10:58:00;;;;;;;0.45;0.45;;;;;;;16.22;79.74;97517.66;5069130;28;20040;-75
2023/10/12 11:00:39;;;;;;;0.47;0.47;;;;;;;16.23;79.07;97505.84;5066331;28;20048;-75
2023/10/12 11:03:08;;;;;;;0.40;0.40;;;;;;;16.22;79.01;97513.09;5067466;28;20060;-75
2023/10/12 11:05:37;;;;;;;0.47;0.47;;;;;;;16.19;79.37;97508.19;5057101;28;20040;-75
2023/10/12 11:08:19;;;;;;;0.50;0.50;;;;;;;16.19;79.33;97512.75;5051558;28;20037;-76
2023/10/12 11:13:32;;;;;;;0.47;0.47;;;;;;;16.21;80.46;97507.94;5052319;28;19920;-75
2023/10/12 11:16:08;;;;;;;0.40;0.40;;;;;;;16.19;80.58;97513.56;5052780;28;20508;-75
2023/10/12 11:18:42;;;;;;;0.50;0.50;;;;;;;16.21;81.38;97511.44;5061084;28;20037;-75
2023/10/12 11:21:11;;;;;;;0.50;0.50;;;;;;;16.17;81.80;97518.38;5064287;28;20055;-75
2023/10/12 11:23:38;;;;;;;0.70;0.50;;;;;;;16.19;81.73;97515.44;5052250;28;20043;-75
2023/10/12 11:26:08;;;;;;;0.47;0.47;;;;;;;16.11;81.60;97512.03;5057873;28;20049;-76
2023/10/12 11:28:37;;;;;;;0.50;0.50;;;;;;;16.13;82.38;97519.88;5052017;28;20523;-76
2023/10/12 11:31:20;;;;;;;0.20;0.20;;;;;;;16.13;82.23;97515.31;5052392;28;20389;-76
2023/10/12 11:33:49;;;;;;;0.60;0.60;;;;;;;16.09;82.63;97513.31;5054798;28;20068;-76
2023/10/12 11:36:23;;;;;;;0.45;0.45;;;;;;;16.15;82.80;97515.09;5061131;28;20493;-77
2023/10/12 11:39:00;;;;;;;0.40;0.40;;;;;;;16.15;82.34;97513.22;5060275;28;20097;-75
2023/10/12 11:41:28;;;;;;;0.60;0.60;;;;;;;16.10;82.95;97506.88;5056478;28;20040;-75
2023/10/12 11:44:00;;;;;;;0.45;0.45;;;;;;;16.08;82.84;97517.06;5060413;28;20055;-75
2023/10/12 11:46:41;;;;;;;0.52;0.52;;;;;;;16.08;82.20;97509.81;5063713;28;20068;-75
2023/10/12 11:49:10;;;;;;;0.47;0.47;;;;;;;16.09;82.91;97516.81;5068880;28;20504;-75
2023/10/12 11:51:50;;;;;;;0.40;0.40;;;;;;;16.09;83.12;97516.81;5058033;28;20041;-75
2023/10/12 11:54:22;;;;;;;0.45;0.45;;;;;;;16.08;83.13;97515.19;5067514;28;20115;-75
2023/10/12 11:56:51;;;;;;;0.38;0.38;;;;;;;16.11;82.57;97511.19;5052750;28;20041;-76
2023/10/12 11:59:26;;;;;;;0.50;0.50;;;;;;;16.13;82.99;97517.19;5061818;28;20040;-75
2023/10/12 12:01:57;;;;;;;0.63;0.60;;;;;;;16.17;83.08;97509.47;5054487;28;20061;-75
2023/10/12 12:04:31;;;;;;;0.65;0.65;;;;;;;16.33;82.14;97508.78;5050852;28;20045;-76
2023/10/12 12:07:02;;;;;;;0.45;0.45;;;;;;;16.25;81.83;97509.94;5047014;28;20045;-76
2023/10/12 12:09:30;;;;;;;0.70;0.70;;;;;;;16.22;82.59;97507.72;5057044;28;20100;-76
2023/10/12 12:12:00;;;;;;;0.10;0.10;;;;;;;16.22;82.10;97506.88;5049586;28;20955;-76
2023/10/12 12:14:28;;;;;;;0.30;0.30;;;;;;;16.17;81.86;97506.78;5052636;28;20095;-75
2023/10/12 12:16:57;;;;;;;0.47;0.47;;;;;;;16.15;81.99;97505.13;5058605;28;20044;-76
2023/10/12 12:19:25;;;;;;;0.50;0.50;;;;;;;16.17;82.34;97501.38;5051022;28;20132;-75
2023/10/12 12:21:53;;;;;;;0.40;0.40;;;;;;;16.21;81.88;97507.94;5062896;28;20050;-76
2023/10/12 12:24:24;;;;;;;0.52;0.52;;;;;;;16.21;81.58;97503.38;5054680;28;20120;-76
2023/10/12 12:26:53;;;;;;;0.43;0.43;;;;;;;16.29;81.61;97502.22;5051219;28;20041;-76
2023/10/12 12:29:25;;;;;;;0.30;0.30;;;;;;;16.26;81.40;97500.81;5060495;28;20040;-76
2023/10/12 12:32:03;;;;;;;0.50;0.50;;;;;;;16.27;81.05;97499.75;5053043;28;20075;-74
2023/10/12 12:34:47;;;;;;;0.60;0.50;;;;;;;16.28;81.25;97504.09;5054539;28;20037;-77
2023/10/12 12:37:17;;;;;;;0.40;0.40;;;;;;;16.31;80.53;97497.41;5058886;28;20058;-74
2023/10/12 12:39:53;;;;;;;0.20;0.20;;;;;;;16.29;80.84;97500.34;5052001;28;20410;-74